sensor_id;sensor_type;location;lat;lon;timestamp;temperature;humidity
8882;DHT22;4477;48.736;9.176;2023-02-03T00:00:32;3.80;99.90
8882;DHT22;4477;48.736;9.176;2023-02-03T00:02:59;3.80;99.90
8882;DHT22;4477;48.736;9.176;2023-02-03T00:05:26;3.70;99.90
8882;DHT22;4477;48.736;9.176;2023-02-03T00:07:55;3.80;99.90
8882;DHT22;4477;48.736;9.176;2023-02-03T00:10:22;3.70;99.90
8882;DHT22;4477;48.736;9.176;2023-02-03T00:12:50;3.70;99.90
8882;DHT22;4477;48.736;9.176;2023-02-03T00:15:18;3.70;99.90
8882;DHT22;4477;48.736;9.176;2023-02-03T00:17:44;3.80;99.90
8882;DHT22;4477;48.736;9.176;2023-02-03T00:20:11;3.80;99.90
8882;DHT22;4477;48.736;9.176;2023-02-03T00:22:38;3.80;99.90
8882;DHT22;4477;48.736;9.176;2023-02-03T00:25:07;3.80;99.90
8882;DHT22;4477;48.736;9.176;2023-02-03T00:27:34;3.90;99.90
8882;DHT22;4477;48.736;9.176;2023-02-03T00:30:00;3.90;99.90
8882;DHT22;4477;48.736;9.176;2023-02-03T00:32:28;3.90;99.90
8882;DHT22;4477;48.736;9.176;2023-02-03T00:34:55;3.90;99.90
8882;DHT22;4477;48.736;9.176;2023-02-03T00:37:21;3.90;99.90
8882;DHT22;4477;48.736;9.176;2023-02-03T00:39:48;3.90;99.90
8882;DHT22;4477;48.736;9.176;2023-02-03T00:42:17;3.90;99.90
8882;DHT22;4477;48.736;9.176;2023-02-03T00:44:43;3.90;99.90
8882;DHT22;4477;48.736;9.176;2023-02-03T00:47:10;3.90;99.90
8882;DHT22;4477;48.736;9.176;2023-02-03T00:49:37;3.90;99.90
8882;DHT22;4477;48.736;9.176;2023-02-03T00:52:04;3.90;99.90
8882;DHT22;4477;48.736;9.176;2023-02-03T00:54:31;3.90;99.90
8882;DHT22;4477;48.736;9.176;2023-02-03T00:56:58;3.90;99.90
8882;DHT22;4477;48.736;9.176;2023-02-03T00:59:26;3.90;99.90
8882;DHT22;4477;48.736;9.176;2023-02-03T01:01:52;3.90;99.90
8882;DHT22;4477;48.736;9.176;2023-02-03T01:04:19;3.90;99.90
8882;DHT22;4477;48.736;9.176;2023-02-03T01:06:46;4.00;99.90
8882;DHT22;4477;48.736;9.176;2023-02-03T01:09:13;3.90;99.90
8882;DHT22;4477;48.736;9.176;2023-02-03T01:11:40;4.00;99.90
8882;DHT22;4477;48.736;9.176;2023-02-03T01:14:07;4.00;99.90
8882;DHT22;4477;48.736;9.176;2023-02-03T01:16:35;3.90;99.90
8882;DHT22;4477;48.736;9.176;2023-02-03T01:19:03;3.90;99.90
8882;DHT22;4477;48.736;9.176;2023-02-03T01:21:30;3.90;99.90
8882;DHT22;4477;48.736;9.176;2023-02-03T01:23:58;3.90;99.90
8882;DHT22;4477;48.736;9.176;2023-02-03T01:26:25;3.90;99.90
8882;DHT22;4477;48.736;9.176;2023-02-03T01:28:53;3.90;99.90
8882;DHT22;4477;48.736;9.176;2023-02-03T01:31:22;3.90;99.90
8882;DHT22;4477;48.736;9.176;2023-02-03T01:33:51;3.90;99.90
8882;DHT22;4477;48.736;9.176;2023-02-03T01:36:20;3.90;99.90
8882;DHT22;4477;48.736;9.176;2023-02-03T01:38:46;3.80;99.90
8882;DHT22;4477;48.736;9.176;2023-02-03T01:41:17;3.80;99.90
8882;DHT22;4477;48.736;9.176;2023-02-03T01:43:46;3.70;99.90
8882;DHT22;4477;48.736;9.176;2023-02-03T01:46:23;3.70;99.90
8882;DHT22;4477;48.736;9.176;2023-02-03T01:48:53;3.70;99.90
8882;DHT22;4477;48.736;9.176;2023-02-03T01:51:21;3.80;99.90
8882;DHT22;4477;48.736;9.176;2023-02-03T01:53:50;3.80;99.90
8882;DHT22;4477;48.736;9.176;2023-02-03T01:56:17;3.90;99.90
8882;DHT22;4477;48.736;9.176;2023-02-03T01:58:46;3.90;99.90
8882;DHT22;4477;48.736;9.176;2023-02-03T02:01:13;3.90;99.90
8882;DHT22;4477;48.736;9.176;2023-02-03T02:03:45;3.90;99.90
8882;DHT22;4477;48.736;9.176;2023-02-03T02:06:14;4.00;99.90
8882;DHT22;4477;48.736;9.176;2023-02-03T02:08:45;3.90;99.90
8882;DHT22;4477;48.736;9.176;2023-02-03T02:11:12;3.90;99.90
8882;DHT22;4477;48.736;9.176;2023-02-03T02:13:40;3.90;99.90
8882;DHT22;4477;48.736;9.176;2023-02-03T02:16:11;4.00;99.90
8882;DHT22;4477;48.736;9.176;2023-02-03T02:18:57;4.00;99.90
8882;DHT22;4477;48.736;9.176;2023-02-03T02:21:57;3.90;99.90
8882;DHT22;4477;48.736;9.176;2023-02-03T02:28:10;4.00;99.90
8882;DHT22;4477;48.736;9.176;2023-02-03T02:31:03;3.90;99.90
8882;DHT22;4477;48.736;9.176;2023-02-03T02:33:41;3.90;99.90
8882;DHT22;4477;48.736;9.176;2023-02-03T02:36:20;3.90;99.90
8882;DHT22;4477;48.736;9.176;2023-02-03T02:38:58;3.90;99.90
8882;DHT22;4477;48.736;9.176;2023-02-03T02:41:35;3.90;99.90
8882;DHT22;4477;48.736;9.176;2023-02-03T02:44:10;3.90;99.90
8882;DHT22;4477;48.736;9.176;2023-02-03T02:46:42;3.90;99.90
8882;DHT22;4477;48.736;9.176;2023-02-03T02:49:15;4.00;99.90
8882;DHT22;4477;48.736;9.176;2023-02-03T02:51:46;3.90;99.90
8882;DHT22;4477;48.736;9.176;2023-02-03T02:54:16;3.90;99.90
8882;DHT22;4477;48.736;9.176;2023-02-03T02:56:47;3.80;99.90
8882;DHT22;4477;48.736;9.176;2023-02-03T02:59:15;3.80;99.90
8882;DHT22;4477;48.736;9.176;2023-02-03T03:01:41;3.90;99.90
8882;DHT22;4477;48.736;9.176;2023-02-03T03:04:12;3.80;99.90
8882;DHT22;4477;48.736;9.176;2023-02-03T03:06:42;3.90;99.90
8882;DHT22;4477;48.736;9.176;2023-02-03T03:09:11;3.90;99.90
8882;DHT22;4477;48.736;9.176;2023-02-03T03:11:42;3.90;99.90
8882;DHT22;4477;48.736;9.176;2023-02-03T03:14:11;3.90;99.90
8882;DHT22;4477;48.736;9.176;2023-02-03T03:16:45;3.90;99.90
8882;DHT22;4477;48.736;9.176;2023-02-03T03:19:17;3.90;99.90
8882;DHT22;4477;48.736;9.176;2023-02-03T03:21:47;3.90;99.90
8882;DHT22;4477;48.736;9.176;2023-02-03T03:24:19;3.80;99.90
8882;DHT22;4477;48.736;9.176;2023-02-03T03:26:51;3.90;99.90
8882;DHT22;4477;48.736;9.176;2023-02-03T03:29:21;3.90;99.90
8882;DHT22;4477;48.736;9.176;2023-02-03T03:31:50;3.80;99.90
8882;DHT22;4477;48.736;9.176;2023-02-03T03:34:18;3.90;99.90
8882;DHT22;4477;48.736;9.176;2023-02-03T03:36:48;3.90;99.90
8882;DHT22;4477;48.736;9.176;2023-02-03T03:39:23;3.90;99.90
8882;DHT22;4477;48.736;9.176;2023-02-03T03:41:56;3.80;99.90
8882;DHT22;4477;48.736;9.176;2023-02-03T03:44:28;3.90;99.90
8882;DHT22;4477;48.736;9.176;2023-02-03T03:47:03;3.90;99.90
8882;DHT22;4477;48.736;9.176;2023-02-03T03:49:35;3.90;99.90
8882;DHT22;4477;48.736;9.176;2023-02-03T03:52:06;3.90;99.90
8882;DHT22;4477;48.736;9.176;2023-02-03T03:54:36;3.90;99.90
8882;DHT22;4477;48.736;9.176;2023-02-03T03:57:07;3.90;99.90
8882;DHT22;4477;48.736;9.176;2023-02-03T03:59:40;3.90;99.90
8882;DHT22;4477;48.736;9.176;2023-02-03T04:02:10;3.90;99.90
8882;DHT22;4477;48.736;9.176;2023-02-03T04:04:39;3.80;99.90
8882;DHT22;4477;48.736;9.176;2023-02-03T04:07:06;3.80;99.90
8882;DHT22;4477;48.736;9.176;2023-02-03T04:09:33;3.80;99.90
8882;DHT22;4477;48.736;9.176;2023-02-03T04:12:01;3.80;99.90
8882;DHT22;4477;48.736;9.176;2023-02-03T04:14:32;3.70;99.90
8882;DHT22;4477;48.736;9.176;2023-02-03T04:17:00;3.70;99.90
8882;DHT22;4477;48.736;9.176;2023-02-03T04:19:27;3.60;99.90
8882;DHT22;4477;48.736;9.176;2023-02-03T04:21:55;3.60;99.90
8882;DHT22;4477;48.736;9.176;2023-02-03T04:24:22;3.60;99.90
8882;DHT22;4477;48.736;9.176;2023-02-03T04:26:49;3.60;99.90
8882;DHT22;4477;48.736;9.176;2023-02-03T04:29:16;3.50;99.90
8882;DHT22;4477;48.736;9.176;2023-02-03T04:31:42;3.50;99.90
8882;DHT22;4477;48.736;9.176;2023-02-03T04:34:09;3.50;99.90
8882;DHT22;4477;48.736;9.176;2023-02-03T04:36:36;3.50;99.90
8882;DHT22;4477;48.736;9.176;2023-02-03T04:39:04;3.40;99.90
8882;DHT22;4477;48.736;9.176;2023-02-03T04:41:31;3.40;99.90
8882;DHT22;4477;48.736;9.176;2023-02-03T04:43:58;3.40;99.90
8882;DHT22;4477;48.736;9.176;2023-02-03T04:46:25;3.30;99.90
8882;DHT22;4477;48.736;9.176;2023-02-03T04:48:51;3.30;99.90
8882;DHT22;4477;48.736;9.176;2023-02-03T04:51:18;3.30;99.90
8882;DHT22;4477;48.736;9.176;2023-02-03T04:53:45;3.30;99.90
8882;DHT22;4477;48.736;9.176;2023-02-03T04:56:13;3.30;99.90
8882;DHT22;4477;48.736;9.176;2023-02-03T04:58:41;3.30;99.90
8882;DHT22;4477;48.736;9.176;2023-02-03T05:01:08;3.30;99.90
8882;DHT22;4477;48.736;9.176;2023-02-03T05:03:35;3.30;99.90
8882;DHT22;4477;48.736;9.176;2023-02-03T05:06:02;3.30;99.90
8882;DHT22;4477;48.736;9.176;2023-02-03T05:08:30;3.30;99.90
8882;DHT22;4477;48.736;9.176;2023-02-03T05:10:57;3.20;99.90
8882;DHT22;4477;48.736;9.176;2023-02-03T05:13:25;3.20;99.90
8882;DHT22;4477;48.736;9.176;2023-02-03T05:15:51;3.30;99.90
8882;DHT22;4477;48.736;9.176;2023-02-03T05:18:18;3.30;99.90
8882;DHT22;4477;48.736;9.176;2023-02-03T05:20:45;3.30;99.90
8882;DHT22;4477;48.736;9.176;2023-02-03T05:23:12;3.30;99.90
8882;DHT22;4477;48.736;9.176;2023-02-03T05:25:39;3.30;99.90
8882;DHT22;4477;48.736;9.176;2023-02-03T05:28:05;3.30;99.90
8882;DHT22;4477;48.736;9.176;2023-02-03T05:30:33;3.30;99.90
8882;DHT22;4477;48.736;9.176;2023-02-03T05:33:00;3.30;99.90
8882;DHT22;4477;48.736;9.176;2023-02-03T05:35:27;3.30;99.90
8882;DHT22;4477;48.736;9.176;2023-02-03T05:37:54;3.30;99.90
8882;DHT22;4477;48.736;9.176;2023-02-03T05:40:21;3.30;99.90
8882;DHT22;4477;48.736;9.176;2023-02-03T05:43:04;3.30;99.90
8882;DHT22;4477;48.736;9.176;2023-02-03T05:45:33;3.30;99.90
8882;DHT22;4477;48.736;9.176;2023-02-03T05:48:00;3.30;99.90
8882;DHT22;4477;48.736;9.176;2023-02-03T05:50:28;3.30;99.90
8882;DHT22;4477;48.736;9.176;2023-02-03T05:52:57;3.30;99.90
8882;DHT22;4477;48.736;9.176;2023-02-03T05:55:25;3.40;99.90
8882;DHT22;4477;48.736;9.176;2023-02-03T05:57:52;3.40;99.90
8882;DHT22;4477;48.736;9.176;2023-02-03T06:00:20;3.40;99.90
8882;DHT22;4477;48.736;9.176;2023-02-03T06:02:51;3.40;99.90
8882;DHT22;4477;48.736;9.176;2023-02-03T06:05:18;3.50;99.90
8882;DHT22;4477;48.736;9.176;2023-02-03T06:07:45;3.50;99.90
8882;DHT22;4477;48.736;9.176;2023-02-03T06:10:12;3.50;99.90
8882;DHT22;4477;48.736;9.176;2023-02-03T06:12:39;3.50;99.90
8882;DHT22;4477;48.736;9.176;2023-02-03T06:15:07;3.50;99.90
8882;DHT22;4477;48.736;9.176;2023-02-03T06:17:34;3.50;99.90
8882;DHT22;4477;48.736;9.176;2023-02-03T06:20:03;3.50;99.90
8882;DHT22;4477;48.736;9.176;2023-02-03T06:22:30;3.50;99.90
8882;DHT22;4477;48.736;9.176;2023-02-03T06:24:57;3.50;99.90
8882;DHT22;4477;48.736;9.176;2023-02-03T06:27:24;3.50;99.90
8882;DHT22;4477;48.736;9.176;2023-02-03T06:29:51;3.50;99.90
8882;DHT22;4477;48.736;9.176;2023-02-03T06:32:17;3.50;99.90
8882;DHT22;4477;48.736;9.176;2023-02-03T06:34:44;3.50;99.90
8882;DHT22;4477;48.736;9.176;2023-02-03T06:37:13;3.40;99.90
8882;DHT22;4477;48.736;9.176;2023-02-03T06:39:39;3.40;99.90
8882;DHT22;4477;48.736;9.176;2023-02-03T06:42:06;3.40;99.90
8882;DHT22;4477;48.736;9.176;2023-02-03T06:44:33;3.40;99.90
8882;DHT22;4477;48.736;9.176;2023-02-03T06:47:00;3.40;99.90
8882;DHT22;4477;48.736;9.176;2023-02-03T06:49:28;3.40;99.90
8882;DHT22;4477;48.736;9.176;2023-02-03T06:51:55;3.40;99.90
8882;DHT22;4477;48.736;9.176;2023-02-03T06:54:23;3.30;99.90
8882;DHT22;4477;48.736;9.176;2023-02-03T06:56:49;3.40;99.90
8882;DHT22;4477;48.736;9.176;2023-02-03T06:59:16;3.30;99.90
8882;DHT22;4477;48.736;9.176;2023-02-03T07:01:43;3.30;99.90
8882;DHT22;4477;48.736;9.176;2023-02-03T07:04:10;3.30;99.90
8882;DHT22;4477;48.736;9.176;2023-02-03T07:06:37;3.30;99.90
8882;DHT22;4477;48.736;9.176;2023-02-03T07:09:05;3.30;99.90
8882;DHT22;4477;48.736;9.176;2023-02-03T07:11:33;3.20;99.90
8882;DHT22;4477;48.736;9.176;2023-02-03T07:14:00;3.30;99.90
8882;DHT22;4477;48.736;9.176;2023-02-03T07:16:27;3.30;99.90
8882;DHT22;4477;48.736;9.176;2023-02-03T07:18:55;3.30;99.90
8882;DHT22;4477;48.736;9.176;2023-02-03T07:21:23;3.20;99.90
8882;DHT22;4477;48.736;9.176;2023-02-03T07:23:49;3.30;99.90
8882;DHT22;4477;48.736;9.176;2023-02-03T07:26:17;3.20;99.90
8882;DHT22;4477;48.736;9.176;2023-02-03T07:28:45;3.30;99.90
8882;DHT22;4477;48.736;9.176;2023-02-03T07:31:12;3.30;99.90
8882;DHT22;4477;48.736;9.176;2023-02-03T07:33:39;3.30;99.90
8882;DHT22;4477;48.736;9.176;2023-02-03T07:36:07;3.30;99.90
8882;DHT22;4477;48.736;9.176;2023-02-03T07:38:34;3.30;99.90
8882;DHT22;4477;48.736;9.176;2023-02-03T07:41:02;3.40;99.90
8882;DHT22;4477;48.736;9.176;2023-02-03T07:43:29;3.30;99.90
8882;DHT22;4477;48.736;9.176;2023-02-03T07:45:57;3.40;99.90
8882;DHT22;4477;48.736;9.176;2023-02-03T07:48:24;3.30;99.90
8882;DHT22;4477;48.736;9.176;2023-02-03T07:50:51;3.30;99.90
8882;DHT22;4477;48.736;9.176;2023-02-03T07:53:18;3.40;99.90
8882;DHT22;4477;48.736;9.176;2023-02-03T07:55:44;3.40;99.90
8882;DHT22;4477;48.736;9.176;2023-02-03T07:58:11;3.40;99.90
8882;DHT22;4477;48.736;9.176;2023-02-03T08:00:39;3.40;99.90
8882;DHT22;4477;48.736;9.176;2023-02-03T08:03:07;3.40;99.90
8882;DHT22;4477;48.736;9.176;2023-02-03T08:05:34;3.40;99.90
8882;DHT22;4477;48.736;9.176;2023-02-03T08:08:01;3.50;99.90
8882;DHT22;4477;48.736;9.176;2023-02-03T08:10:28;3.50;99.90
8882;DHT22;4477;48.736;9.176;2023-02-03T08:12:54;3.50;99.90
8882;DHT22;4477;48.736;9.176;2023-02-03T08:15:22;3.50;99.90
8882;DHT22;4477;48.736;9.176;2023-02-03T08:17:50;3.50;99.90
8882;DHT22;4477;48.736;9.176;2023-02-03T08:20:18;3.50;99.90
8882;DHT22;4477;48.736;9.176;2023-02-03T08:22:45;3.60;99.90
8882;DHT22;4477;48.736;9.176;2023-02-03T08:25:12;3.60;99.90
8882;DHT22;4477;48.736;9.176;2023-02-03T08:27:39;3.60;99.90
8882;DHT22;4477;48.736;9.176;2023-02-03T08:30:09;3.70;99.90
8882;DHT22;4477;48.736;9.176;2023-02-03T08:32:37;3.60;99.90
8882;DHT22;4477;48.736;9.176;2023-02-03T08:35:04;3.70;99.90
8882;DHT22;4477;48.736;9.176;2023-02-03T08:37:35;3.70;99.90
8882;DHT22;4477;48.736;9.176;2023-02-03T08:40:02;3.70;99.90
8882;DHT22;4477;48.736;9.176;2023-02-03T08:42:29;3.70;99.90
8882;DHT22;4477;48.736;9.176;2023-02-03T08:44:56;3.70;99.90
8882;DHT22;4477;48.736;9.176;2023-02-03T08:47:23;3.70;99.90
8882;DHT22;4477;48.736;9.176;2023-02-03T08:49:52;3.70;99.90
8882;DHT22;4477;48.736;9.176;2023-02-03T08:52:19;3.80;99.90
8882;DHT22;4477;48.736;9.176;2023-02-03T08:54:48;3.80;99.90
8882;DHT22;4477;48.736;9.176;2023-02-03T08:57:15;4.10;99.90
8882;DHT22;4477;48.736;9.176;2023-02-03T08:59:42;4.20;99.90
8882;DHT22;4477;48.736;9.176;2023-02-03T09:02:14;4.10;99.90
8882;DHT22;4477;48.736;9.176;2023-02-03T09:04:41;4.00;99.90
8882;DHT22;4477;48.736;9.176;2023-02-03T09:07:08;3.90;99.90
8882;DHT22;4477;48.736;9.176;2023-02-03T09:09:35;3.90;99.90
8882;DHT22;4477;48.736;9.176;2023-02-03T09:12:04;3.90;99.90
8882;DHT22;4477;48.736;9.176;2023-02-03T09:14:32;4.00;99.90
8882;DHT22;4477;48.736;9.176;2023-02-03T09:17:00;4.10;99.90
8882;DHT22;4477;48.736;9.176;2023-02-03T09:19:27;4.10;99.90
8882;DHT22;4477;48.736;9.176;2023-02-03T09:21:55;4.10;99.90
8882;DHT22;4477;48.736;9.176;2023-02-03T09:24:22;4.20;99.90
8882;DHT22;4477;48.736;9.176;2023-02-03T09:26:49;4.30;99.90
8882;DHT22;4477;48.736;9.176;2023-02-03T09:29:18;4.40;99.90
8882;DHT22;4477;48.736;9.176;2023-02-03T09:31:47;4.50;99.90
8882;DHT22;4477;48.736;9.176;2023-02-03T09:34:15;4.60;99.90
8882;DHT22;4477;48.736;9.176;2023-02-03T09:36:41;4.60;99.90
8882;DHT22;4477;48.736;9.176;2023-02-03T09:39:08;4.70;99.90
8882;DHT22;4477;48.736;9.176;2023-02-03T09:41:50;4.70;99.90
8882;DHT22;4477;48.736;9.176;2023-02-03T09:44:23;4.60;99.90
8882;DHT22;4477;48.736;9.176;2023-02-03T09:46:55;4.60;99.90
8882;DHT22;4477;48.736;9.176;2023-02-03T09:49:27;4.60;99.90
8882;DHT22;4477;48.736;9.176;2023-02-03T09:52:02;4.50;99.90
8882;DHT22;4477;48.736;9.176;2023-02-03T09:54:40;4.60;99.90
8882;DHT22;4477;48.736;9.176;2023-02-03T09:57:13;4.70;99.90
8882;DHT22;4477;48.736;9.176;2023-02-03T09:59:42;4.60;99.90
8882;DHT22;4477;48.736;9.176;2023-02-03T10:02:30;4.70;99.90
8882;DHT22;4477;48.736;9.176;2023-02-03T10:05:03;4.80;99.90
8882;DHT22;4477;48.736;9.176;2023-02-03T10:07:38;4.90;99.90
8882;DHT22;4477;48.736;9.176;2023-02-03T10:10:15;5.00;99.90
8882;DHT22;4477;48.736;9.176;2023-02-03T10:13:00;5.10;99.90
8882;DHT22;4477;48.736;9.176;2023-02-03T10:15:51;5.20;99.90
8882;DHT22;4477;48.736;9.176;2023-02-03T10:18:23;5.30;99.90
8882;DHT22;4477;48.736;9.176;2023-02-03T10:20:54;5.30;99.90
8882;DHT22;4477;48.736;9.176;2023-02-03T10:23:27;5.50;99.90
8882;DHT22;4477;48.736;9.176;2023-02-03T10:25:56;5.50;99.90
8882;DHT22;4477;48.736;9.176;2023-02-03T10:28:28;5.40;99.90
8882;DHT22;4477;48.736;9.176;2023-02-03T10:30:58;5.40;99.90
8882;DHT22;4477;48.736;9.176;2023-02-03T10:33:27;5.50;99.90
8882;DHT22;4477;48.736;9.176;2023-02-03T10:35:57;5.40;99.90
8882;DHT22;4477;48.736;9.176;2023-02-03T10:38:40;5.40;99.90
8882;DHT22;4477;48.736;9.176;2023-02-03T10:41:09;5.40;99.90
8882;DHT22;4477;48.736;9.176;2023-02-03T10:43:36;5.30;99.90
8882;DHT22;4477;48.736;9.176;2023-02-03T10:46:19;5.30;99.90
8882;DHT22;4477;48.736;9.176;2023-02-03T10:48:46;5.30;99.90
8882;DHT22;4477;48.736;9.176;2023-02-03T10:51:18;5.30;99.90
8882;DHT22;4477;48.736;9.176;2023-02-03T10:53:46;5.30;99.90
8882;DHT22;4477;48.736;9.176;2023-02-03T10:56:14;5.40;99.90
8882;DHT22;4477;48.736;9.176;2023-02-03T10:58:47;5.40;99.90
8882;DHT22;4477;48.736;9.176;2023-02-03T11:01:18;5.80;99.90
8882;DHT22;4477;48.736;9.176;2023-02-03T11:03:55;6.30;99.90
8882;DHT22;4477;48.736;9.176;2023-02-03T11:06:23;6.90;99.90
8882;DHT22;4477;48.736;9.176;2023-02-03T11:11:22;7.50;99.90
8882;DHT22;4477;48.736;9.176;2023-02-03T11:16:22;7.20;99.90
8882;DHT22;4477;48.736;9.176;2023-02-03T11:18:56;6.50;99.90
8882;DHT22;4477;48.736;9.176;2023-02-03T11:21:26;6.10;99.90
8882;DHT22;4477;48.736;9.176;2023-02-03T11:23:59;5.90;99.90
8882;DHT22;4477;48.736;9.176;2023-02-03T11:26:29;5.70;99.90
8882;DHT22;4477;48.736;9.176;2023-02-03T11:28:59;5.60;99.90
8882;DHT22;4477;48.736;9.176;2023-02-03T11:31:30;5.50;99.90
8882;DHT22;4477;48.736;9.176;2023-02-03T11:34:01;5.50;99.90
8882;DHT22;4477;48.736;9.176;2023-02-03T11:36:30;5.40;99.90
8882;DHT22;4477;48.736;9.176;2023-02-03T11:39:18;5.50;99.90
8882;DHT22;4477;48.736;9.176;2023-02-03T11:41:46;5.60;99.90
8882;DHT22;4477;48.736;9.176;2023-02-03T11:44:18;5.70;99.90
8882;DHT22;4477;48.736;9.176;2023-02-03T11:46:48;5.80;99.90
8882;DHT22;4477;48.736;9.176;2023-02-03T11:52:20;5.90;99.90
8882;DHT22;4477;48.736;9.176;2023-02-03T11:55:00;5.90;99.90
8882;DHT22;4477;48.736;9.176;2023-02-03T11:57:38;5.90;99.90
8882;DHT22;4477;48.736;9.176;2023-02-03T12:00:18;5.80;99.90
8882;DHT22;4477;48.736;9.176;2023-02-03T12:03:01;5.80;99.90
8882;DHT22;4477;48.736;9.176;2023-02-03T12:05:38;5.80;99.90
8882;DHT22;4477;48.736;9.176;2023-02-03T12:08:17;6.00;99.90
8882;DHT22;4477;48.736;9.176;2023-02-03T12:10:59;6.10;99.90
8882;DHT22;4477;48.736;9.176;2023-02-03T12:13:50;6.10;99.90
8882;DHT22;4477;48.736;9.176;2023-02-03T12:16:33;6.10;99.90
8882;DHT22;4477;48.736;9.176;2023-02-03T12:19:13;6.10;99.90
8882;DHT22;4477;48.736;9.176;2023-02-03T12:24:29;6.20;99.90
8882;DHT22;4477;48.736;9.176;2023-02-03T12:27:13;6.20;99.90
8882;DHT22;4477;48.736;9.176;2023-02-03T12:29:45;6.30;99.90
8882;DHT22;4477;48.736;9.176;2023-02-03T12:32:18;6.30;99.90
8882;DHT22;4477;48.736;9.176;2023-02-03T12:34:54;6.30;99.90
8882;DHT22;4477;48.736;9.176;2023-02-03T12:37:24;6.40;99.90
8882;DHT22;4477;48.736;9.176;2023-02-03T12:39:56;6.40;99.90
8882;DHT22;4477;48.736;9.176;2023-02-03T12:42:28;6.40;99.90
8882;DHT22;4477;48.736;9.176;2023-02-03T12:45:00;6.30;99.90
8882;DHT22;4477;48.736;9.176;2023-02-03T12:47:31;6.30;99.90
8882;DHT22;4477;48.736;9.176;2023-02-03T12:50:03;6.30;99.90
8882;DHT22;4477;48.736;9.176;2023-02-03T12:52:35;6.30;99.90
8882;DHT22;4477;48.736;9.176;2023-02-03T12:55:13;6.20;99.90
8882;DHT22;4477;48.736;9.176;2023-02-03T12:57:46;6.20;99.90
8882;DHT22;4477;48.736;9.176;2023-02-03T13:00:21;6.10;99.90
8882;DHT22;4477;48.736;9.176;2023-02-03T13:03:05;6.20;99.90
8882;DHT22;4477;48.736;9.176;2023-02-03T13:05:40;6.20;99.90
8882;DHT22;4477;48.736;9.176;2023-02-03T13:08:12;6.20;99.90
8882;DHT22;4477;48.736;9.176;2023-02-03T13:10:44;6.20;99.90
8882;DHT22;4477;48.736;9.176;2023-02-03T13:13:16;6.30;99.90
8882;DHT22;4477;48.736;9.176;2023-02-03T13:15:48;6.30;99.90
8882;DHT22;4477;48.736;9.176;2023-02-03T13:18:22;6.40;99.90
8882;DHT22;4477;48.736;9.176;2023-02-03T13:20:52;6.40;99.90
8882;DHT22;4477;48.736;9.176;2023-02-03T13:23:20;6.50;99.90
8882;DHT22;4477;48.736;9.176;2023-02-03T13:26:04;6.50;99.90
8882;DHT22;4477;48.736;9.176;2023-02-03T13:28:52;6.50;99.90
8882;DHT22;4477;48.736;9.176;2023-02-03T13:31:36;6.40;99.90
8882;DHT22;4477;48.736;9.176;2023-02-03T13:34:13;6.40;99.90
8882;DHT22;4477;48.736;9.176;2023-02-03T13:36:53;6.40;99.90
8882;DHT22;4477;48.736;9.176;2023-02-03T13:39:39;6.30;99.90
8882;DHT22;4477;48.736;9.176;2023-02-03T13:42:18;6.30;99.90
8882;DHT22;4477;48.736;9.176;2023-02-03T13:44:50;6.30;99.90
8882;DHT22;4477;48.736;9.176;2023-02-03T13:47:21;6.30;99.90
8882;DHT22;4477;48.736;9.176;2023-02-03T13:49:52;6.20;99.90
8882;DHT22;4477;48.736;9.176;2023-02-03T13:52:27;6.30;99.90
8882;DHT22;4477;48.736;9.176;2023-02-03T13:54:56;6.30;99.90
8882;DHT22;4477;48.736;9.176;2023-02-03T13:57:28;6.20;99.90
8882;DHT22;4477;48.736;9.176;2023-02-03T13:59:59;6.20;99.90
8882;DHT22;4477;48.736;9.176;2023-02-03T14:02:51;6.30;99.90
8882;DHT22;4477;48.736;9.176;2023-02-03T14:05:43;6.30;99.90
8882;DHT22;4477;48.736;9.176;2023-02-03T14:11:41;6.30;99.90
8882;DHT22;4477;48.736;9.176;2023-02-03T14:14:41;6.30;99.90
8882;DHT22;4477;48.736;9.176;2023-02-03T14:20:36;6.30;99.90
8882;DHT22;4477;48.736;9.176;2023-02-03T14:23:09;6.20;99.90
8882;DHT22;4477;48.736;9.176;2023-02-03T14:25:39;6.20;99.90
8882;DHT22;4477;48.736;9.176;2023-02-03T14:28:11;6.20;99.90
8882;DHT22;4477;48.736;9.176;2023-02-03T14:31:04;6.20;99.90
8882;DHT22;4477;48.736;9.176;2023-02-03T14:33:54;6.10;99.90
8882;DHT22;4477;48.736;9.176;2023-02-03T14:36:38;6.10;99.90
8882;DHT22;4477;48.736;9.176;2023-02-03T14:45:43;6.00;99.90
8882;DHT22;4477;48.736;9.176;2023-02-03T14:48:28;6.00;99.90
8882;DHT22;4477;48.736;9.176;2023-02-03T14:51:05;6.10;99.90
8882;DHT22;4477;48.736;9.176;2023-02-03T14:53:53;6.10;99.90
8882;DHT22;4477;48.736;9.176;2023-02-03T14:56:31;6.00;99.90
8882;DHT22;4477;48.736;9.176;2023-02-03T14:59:29;5.90;99.90
8882;DHT22;4477;48.736;9.176;2023-02-03T15:02:10;5.90;99.90
8882;DHT22;4477;48.736;9.176;2023-02-03T15:04:39;5.90;99.90
8882;DHT22;4477;48.736;9.176;2023-02-03T15:07:06;5.80;99.90
8882;DHT22;4477;48.736;9.176;2023-02-03T15:09:37;5.80;99.90
8882;DHT22;4477;48.736;9.176;2023-02-03T15:12:16;5.80;99.90
8882;DHT22;4477;48.736;9.176;2023-02-03T15:14:43;5.70;99.90
8882;DHT22;4477;48.736;9.176;2023-02-03T15:17:19;5.60;99.90
8882;DHT22;4477;48.736;9.176;2023-02-03T15:19:47;5.60;99.90
8882;DHT22;4477;48.736;9.176;2023-02-03T15:22:22;5.50;99.90
8882;DHT22;4477;48.736;9.176;2023-02-03T15:24:52;5.50;99.90
8882;DHT22;4477;48.736;9.176;2023-02-03T15:27:21;5.40;99.90
8882;DHT22;4477;48.736;9.176;2023-02-03T15:29:48;5.40;99.90
8882;DHT22;4477;48.736;9.176;2023-02-03T15:32:22;5.40;99.90
8882;DHT22;4477;48.736;9.176;2023-02-03T15:34:53;5.40;99.90
8882;DHT22;4477;48.736;9.176;2023-02-03T15:37:26;5.40;99.90
8882;DHT22;4477;48.736;9.176;2023-02-03T15:40:00;5.40;99.90
8882;DHT22;4477;48.736;9.176;2023-02-03T15:42:31;5.30;99.90
8882;DHT22;4477;48.736;9.176;2023-02-03T15:45:03;5.30;99.90
8882;DHT22;4477;48.736;9.176;2023-02-03T15:47:36;5.30;99.90
8882;DHT22;4477;48.736;9.176;2023-02-03T15:50:21;5.30;99.90
8882;DHT22;4477;48.736;9.176;2023-02-03T15:52:52;5.30;99.90
8882;DHT22;4477;48.736;9.176;2023-02-03T15:55:24;5.40;99.90
8882;DHT22;4477;48.736;9.176;2023-02-03T15:57:53;5.30;99.90
8882;DHT22;4477;48.736;9.176;2023-02-03T16:00:30;5.30;99.90
8882;DHT22;4477;48.736;9.176;2023-02-03T16:02:59;5.30;99.90
8882;DHT22;4477;48.736;9.176;2023-02-03T16:05:30;5.20;99.90
8882;DHT22;4477;48.736;9.176;2023-02-03T16:08:33;5.30;99.90
8882;DHT22;4477;48.736;9.176;2023-02-03T16:11:01;5.20;99.90
8882;DHT22;4477;48.736;9.176;2023-02-03T16:13:28;5.20;99.90
8882;DHT22;4477;48.736;9.176;2023-02-03T16:16:00;5.30;99.90
8882;DHT22;4477;48.736;9.176;2023-02-03T16:18:27;5.20;99.90
8882;DHT22;4477;48.736;9.176;2023-02-03T16:20:54;5.20;99.90
8882;DHT22;4477;48.736;9.176;2023-02-03T16:23:22;5.10;99.90
8882;DHT22;4477;48.736;9.176;2023-02-03T16:26:21;5.00;99.90
8882;DHT22;4477;48.736;9.176;2023-02-03T16:28:55;5.00;99.90
8882;DHT22;4477;48.736;9.176;2023-02-03T16:31:44;4.90;99.90
8882;DHT22;4477;48.736;9.176;2023-02-03T16:34:29;4.90;99.90
8882;DHT22;4477;48.736;9.176;2023-02-03T16:37:21;4.80;99.90
8882;DHT22;4477;48.736;9.176;2023-02-03T16:40:07;4.80;99.90
8882;DHT22;4477;48.736;9.176;2023-02-03T16:42:53;4.80;99.90
8882;DHT22;4477;48.736;9.176;2023-02-03T16:45:37;4.80;99.90
8882;DHT22;4477;48.736;9.176;2023-02-03T16:48:21;4.80;99.90
8882;DHT22;4477;48.736;9.176;2023-02-03T16:51:10;4.80;99.90
8882;DHT22;4477;48.736;9.176;2023-02-03T16:53:37;4.80;99.90
8882;DHT22;4477;48.736;9.176;2023-02-03T16:56:05;4.80;99.90
8882;DHT22;4477;48.736;9.176;2023-02-03T16:58:33;4.90;99.90
8882;DHT22;4477;48.736;9.176;2023-02-03T17:01:02;4.90;99.90
8882;DHT22;4477;48.736;9.176;2023-02-03T17:03:30;4.80;99.90
8882;DHT22;4477;48.736;9.176;2023-02-03T17:06:02;4.90;99.90
8882;DHT22;4477;48.736;9.176;2023-02-03T17:08:29;4.90;99.90
8882;DHT22;4477;48.736;9.176;2023-02-03T17:11:01;4.90;99.90